createdAt,value
2022-10-04T00:01:05.461Z,33
2022-10-04T00:16:06.192Z,26
2022-10-04T00:31:05.613Z,21
2022-10-04T00:46:05.794Z,29
2022-10-04T01:01:05.044Z,22
2022-10-04T01:16:05.205Z,22
2022-10-04T01:31:04.868Z,19
2022-10-04T01:46:05.064Z,23
2022-10-04T02:01:05.631Z,16
2022-10-04T02:16:05.989Z,19
2022-10-04T02:31:05.617Z,24
2022-10-04T02:46:05.651Z,26
2022-10-04T03:01:05.528Z,23
2022-10-04T03:16:06.012Z,23
2022-10-04T03:31:05.391Z,22
2022-10-04T03:46:05.547Z,23
2022-10-04T04:01:06.150Z,21
2022-10-04T04:16:05.312Z,21
2022-10-04T04:31:06.002Z,19
2022-10-04T04:46:27.818Z,29
2022-10-04T05:01:05.333Z,15
2022-10-04T05:16:05.702Z,29
2022-10-04T05:31:05.371Z,22
2022-10-04T05:46:05.601Z,30
2022-10-04T06:01:05.872Z,33
2022-10-04T06:16:04.753Z,19
2022-10-04T06:31:05.762Z,22
2022-10-04T06:46:05.151Z,21
2022-10-04T07:01:05.368Z,21
2022-10-04T07:16:05.939Z,15
2022-10-04T07:31:05.221Z,24
2022-10-04T07:46:05.223Z,20
2022-10-04T08:01:04.811Z,15
2022-10-04T08:16:05.392Z,12
2022-10-04T08:31:05.788Z,9
2022-10-04T08:46:05.428Z,12
2022-10-04T09:01:05.870Z,9
2022-10-04T09:16:05.327Z,11
2022-10-04T09:31:05.779Z,12
2022-10-04T09:46:05.835Z,5
2022-10-04T10:01:04.762Z,10
2022-10-04T10:16:05.161Z,8
2022-10-04T10:31:05.117Z,6
2022-10-04T10:46:05.523Z,14
2022-10-04T11:01:05.625Z,6
2022-10-04T11:16:04.679Z,5
2022-10-04T11:31:05.724Z,8
2022-10-04T11:46:11.143Z,4
2022-10-04T12:01:04.869Z,4
2022-10-04T12:16:05.279Z,5
2022-10-04T12:31:05.617Z,5
2022-10-04T12:46:05.468Z,4
2022-10-04T13:01:06.116Z,6
2022-10-04T13:31:05.596Z,8
2022-10-04T13:46:06.174Z,5
2022-10-04T14:01:05.601Z,5
2022-10-04T14:16:05.520Z,10
2022-10-04T14:31:05.598Z,7
2022-10-04T14:46:05.200Z,5
2022-10-04T15:01:05.454Z,9
2022-10-04T15:16:14.101Z,7
2022-10-04T15:31:05.915Z,9
2022-10-04T15:46:04.915Z,8
2022-10-04T16:01:05.036Z,10
2022-10-04T16:16:05.547Z,16
2022-10-04T16:31:05.420Z,16
2022-10-04T16:46:05.498Z,21
2022-10-04T17:01:05.304Z,29
2022-10-04T17:16:05.339Z,35
2022-10-04T17:31:04.963Z,45
2022-10-04T17:46:05.676Z,33
2022-10-04T18:01:04.758Z,105
2022-10-04T18:16:05.638Z,70
2022-10-04T18:31:05.100Z,56
2022-10-04T18:46:04.945Z,66
2022-10-04T19:01:05.181Z,48
2022-10-04T19:16:05.974Z,74
2022-10-04T19:31:05.250Z,54
2022-10-04T19:46:05.559Z,57
2022-10-04T20:01:05.026Z,53
2022-10-04T20:16:05.455Z,63
2022-10-04T20:31:04.835Z,51
2022-10-04T20:46:05.672Z,44
2022-10-04T21:01:05.564Z,41
2022-10-04T21:16:05.548Z,43
2022-10-04T21:31:05.322Z,47
2022-10-04T21:46:05.890Z,54
2022-10-04T22:01:05.181Z,50
2022-10-04T22:16:05.796Z,48
2022-10-04T22:31:05.267Z,37
2022-10-04T22:46:05.862Z,36
2022-10-04T23:01:04.856Z,37
2022-10-04T23:16:05.299Z,44
2022-10-04T23:31:05.428Z,40
2022-10-04T23:46:05.743Z,46
